Time;durP1;ratioP1;P1;durP2;ratioP2;P2;SDS_P1;SDS_P2;PMS_P1;PMS_P2;Temp;Humidity;BMP_temperature;BMP_pressure;BME280_temperature;BME280_humidity;BME280_pressure;Samples;Min_cycle;Max_cycle;Signal;HPM_P1;HPM_P2
2022/11/16 00:01:24;;;;;;;1.15;0.95;;;;;;;;;;5067526;28;20033;-42
2022/11/16 00:03:51;;;;;;;1.55;0.98;;;;;;;;;;5067764;28;20035;-42
2022/11/16 00:06:18;;;;;;;1.30;0.93;;;;;;;;;;5084617;28;20032;-42
2022/11/16 00:09:20;;;;;;;1.05;0.85;;;;;;;;;;5086345;28;20046;-43
2022/11/16 00:11:31;;;;;;;1.02;0.70;;;;;;;;;;5067958;28;20040;-42
2022/11/16 00:13:57;;;;;;;0.77;0.75;;;;;;;;;;5067030;28;20017;-42
2022/11/16 00:16:23;;;;;;;1.73;1.00;;;;;;;;;;5067719;28;20468;-42
2022/11/16 00:18:55;;;;;;;1.20;0.80;;;;;;;;;;5049088;28;20404;-43
2022/11/16 00:21:21;;;;;;;1.00;0.82;;;;;;;;;;5067673;28;20509;-43
2022/11/16 00:23:47;;;;;;;1.23;0.70;;;;;;;;;;5066855;28;20554;-43
2022/11/16 00:26:13;;;;;;;1.17;0.80;;;;;;;;;;5066272;28;20028;-43
2022/11/16 00:28:39;;;;;;;1.10;0.80;;;;;;;;;;5070427;28;20356;-42
2022/11/16 00:31:06;;;;;;;1.00;0.80;;;;;;;;;;5087178;28;20032;-42
2022/11/16 00:33:32;;;;;;;1.00;0.90;;;;;;;;;;5087062;28;20032;-42
2022/11/16 00:36:02;;;;;;;1.25;1.00;;;;;;;;;;5086787;28;20020;-43
2022/11/16 00:38:28;;;;;;;1.00;0.80;;;;;;;;;;5087071;28;20383;-42
2022/11/16 00:40:54;;;;;;;0.93;0.80;;;;;;;;;;5087777;28;20020;-43
2022/11/16 00:43:20;;;;;;;1.25;1.15;;;;;;;;;;5085204;28;20472;-42
2022/11/16 00:45:46;;;;;;;0.65;0.65;;;;;;;;;;5066690;28;20032;-43
2022/11/16 00:48:12;;;;;;;0.98;0.85;;;;;;;;;;5066740;28;20039;-43
2022/11/16 00:50:38;;;;;;;1.00;0.75;;;;;;;;;;5066656;28;20579;-42
2022/11/16 00:53:05;;;;;;;0.90;0.70;;;;;;;;;;5066489;28;20036;-43
2022/11/16 06:04:34;;;;;;;0.50;0.50;;;;;;;;;;5070143;28;20522;-42
2022/11/16 06:07:00;;;;;;;0.55;0.55;;;;;;;;;;5073579;28;20033;-41
2022/11/16 06:09:27;;;;;;;0.40;0.40;;;;;;;;;;5091279;28;20676;-42
2022/11/16 06:11:53;;;;;;;0.63;0.50;;;;;;;;;;5084645;28;20044;-41
2022/11/16 06:14:19;;;;;;;0.82;0.50;;;;;;;;;;5074440;28;20503;-42
2022/11/16 06:16:45;;;;;;;0.40;0.40;;;;;;;;;;5077539;28;20440;-41
2022/11/16 06:19:11;;;;;;;0.90;0.50;;;;;;;;;;5080571;28;20511;-41
2022/11/16 06:21:37;;;;;;;0.55;0.45;;;;;;;;;;5090839;28;20059;-41
2022/11/16 06:24:07;;;;;;;0.52;0.45;;;;;;;;;;5085472;28;20395;-41
2022/11/16 06:26:33;;;;;;;0.40;0.40;;;;;;;;;;5077055;28;20033;-41
2022/11/16 06:28:59;;;;;;;0.40;0.40;;;;;;;;;;5071048;28;20024;-41
2022/11/16 06:31:25;;;;;;;0.45;0.40;;;;;;;;;;5070965;28;20036;-41
2022/11/16 06:33:51;;;;;;;1.20;0.50;;;;;;;;;;5070491;28;20083;-41
2022/11/16 06:36:17;;;;;;;0.40;0.40;;;;;;;;;;5071755;28;20658;-42
2022/11/16 06:38:43;;;;;;;0.38;0.38;;;;;;;;;;5083974;28;20396;-41
2022/11/16 06:41:09;;;;;;;0.45;0.40;;;;;;;;;;5086013;28;20028;-41
2022/11/16 06:43:35;;;;;;;0.40;0.40;;;;;;;;;;5088701;28;20752;-42
2022/11/16 06:46:01;;;;;;;0.80;0.50;;;;;;;;;;5093551;28;20052;-42
2022/11/16 06:48:28;;;;;;;1.02;0.60;;;;;;;;;;5078145;28;20029;-42
2022/11/16 06:50:54;;;;;;;1.00;0.40;;;;;;;;;;5071312;28;20033;-42
2022/11/16 06:53:20;;;;;;;0.70;0.50;;;;;;;;;;5070448;28;20029;-42
2022/11/16 06:55:46;;;;;;;0.40;0.40;;;;;;;;;;5087269;28;20062;-42
2022/11/16 06:58:12;;;;;;;0.47;0.47;;;;;;;;;;5087701;28;20102;-42
2022/11/16 07:00:38;;;;;;;0.50;0.40;;;;;;;;;;5088933;28;20494;-43
2022/11/16 07:03:05;;;;;;;1.10;0.70;;;;;;;;;;5091345;28;20031;-42
2022/11/16 07:05:32;;;;;;;0.47;0.40;;;;;;;;;;5088611;28;20094;-42
2022/11/16 07:07:58;;;;;;;0.60;0.60;;;;;;;;;;5082071;28;20028;-42
2022/11/16 07:10:25;;;;;;;0.50;0.50;;;;;;;;;;5084845;28;20078;-42
2022/11/16 07:12:51;;;;;;;0.47;0.40;;;;;;;;;;5091078;28;20098;-42
2022/11/16 07:15:17;;;;;;;0.50;0.50;;;;;;;;;;5109258;28;20031;-40
2022/11/16 07:17:43;;;;;;;0.52;0.50;;;;;;;;;;5096136;28;20045;-39
2022/11/16 07:20:10;;;;;;;0.40;0.40;;;;;;;;;;5090983;28;20107;-39
2022/11/16 07:22:37;;;;;;;0.73;0.50;;;;;;;;;;5090885;28;20017;-39
2022/11/16 07:25:03;;;;;;;0.40;0.40;;;;;;;;;;5090879;28;20020;-40
2022/11/16 07:27:29;;;;;;;0.40;0.32;;;;;;;;;;5089508;28;20031;-40
2022/11/16 07:29:55;;;;;;;0.45;0.40;;;;;;;;;;5087738;28;20495;-40
2022/11/16 07:32:21;;;;;;;0.63;0.60;;;;;;;;;;5087016;28;20431;-40
2022/11/16 07:34:47;;;;;;;1.45;0.60;;;;;;;;;;5070523;28;20475;-40
2022/11/16 07:37:13;;;;;;;0.88;0.80;;;;;;;;;;5090655;28;20024;-39
2022/11/16 07:39:39;;;;;;;1.52;1.15;;;;;;;;;;5090626;28;20028;-40
2022/11/16 07:42:10;;;;;;;2.05;1.10;;;;;;;;;;5090335;28;20032;-40
2022/11/16 07:44:36;;;;;;;2.45;1.20;;;;;;;;;;5090615;28;20031;-39
2022/11/16 07:47:02;;;;;;;1.52;1.30;;;;;;;;;;5089359;28;20024;-39
2022/11/16 07:49:29;;;;;;;2.10;1.08;;;;;;;;;;5088388;28;20039;-39
2022/11/16 07:51:55;;;;;;;0.60;0.60;;;;;;;;;;5088129;28;20040;-40
2022/11/16 07:54:21;;;;;;;1.65;0.90;;;;;;;;;;5076598;28;20032;-39
2022/11/16 07:56:47;;;;;;;1.00;0.85;;;;;;;;;;5069710;28;20027;-40
2022/11/16 07:59:13;;;;;;;1.67;0.80;;;;;;;;;;5070608;28;20500;-39
2022/11/16 08:01:39;;;;;;;1.10;0.70;;;;;;;;;;5082400;28;20547;-40
2022/11/16 08:04:05;;;;;;;1.42;0.82;;;;;;;;;;5072430;28;20032;-40
2022/11/16 08:06:31;;;;;;;1.40;0.90;;;;;;;;;;5084962;28;20043;-40
2022/11/16 08:08:58;;;;;;;1.52;0.88;;;;;;;;;;5071705;28;20170;-40
2022/11/16 08:11:24;;;;;;;0.98;0.77;;;;;;;;;;5074883;28;20028;-40
2022/11/16 08:13:50;;;;;;;0.90;0.70;;;;;;;;;;5073239;28;20025;-40
2022/11/16 08:16:17;;;;;;;0.88;0.73;;;;;;;;;;5105664;28;20479;-40
2022/11/16 08:18:44;;;;;;;1.35;0.85;;;;;;;;;;5105792;28;20016;-40
2022/11/16 08:21:12;;;;;;;1.52;1.00;;;;;;;;;;5087169;28;20039;-39
2022/11/16 08:23:41;;;;;;;0.95;0.77;;;;;;;;;;5069737;28;20021;-39
2022/11/16 08:26:08;;;;;;;1.33;0.88;;;;;;;;;;5073200;28;20036;-40
2022/11/16 08:28:35;;;;;;;1.08;0.80;;;;;;;;;;5102273;28;20034;-40
2022/11/16 08:31:07;;;;;;;0.68;0.68;;;;;;;;;;5089105;28;20031;-40
2022/11/16 08:33:33;;;;;;;0.90;0.73;;;;;;;;;;5086722;28;20096;-40
2022/11/16 08:36:03;;;;;;;0.60;0.60;;;;;;;;;;5081869;28;20036;-40
2022/11/16 08:38:29;;;;;;;0.65;0.65;;;;;;;;;;5103576;28;20403;-39
2022/11/16 08:40:55;;;;;;;0.50;0.50;;;;;;;;;;5104920;28;20032;-40
2022/11/16 08:43:21;;;;;;;1.83;0.50;;;;;;;;;;5089845;28;20405;-39
2022/11/16 08:45:47;;;;;;;0.50;0.40;;;;;;;;;;5072621;28;20024;-39
2022/11/16 08:48:14;;;;;;;0.40;0.30;;;;;;;;;;5076679;28;20031;-39
2022/11/16 08:50:40;;;;;;;0.30;0.30;;;;;;;;;;5100395;28;20437;-40
2022/11/16 08:53:07;;;;;;;0.30;0.30;;;;;;;;;;5089269;28;20104;-40
2022/11/16 08:55:33;;;;;;;1.25;0.38;;;;;;;;;;5089219;28;20032;-40
2022/11/16 08:57:59;;;;;;;0.50;0.50;;;;;;;;;;5089226;28;20531;-40
2022/11/16 09:00:25;;;;;;;0.70;0.60;;;;;;;;;;5083498;28;20036;-40
2022/11/16 09:02:51;;;;;;;0.73;0.70;;;;;;;;;;5089611;28;20028;-40
2022/11/16 09:05:17;;;;;;;0.60;0.60;;;;;;;;;;5073224;28;20032;-40
2022/11/16 09:07:44;;;;;;;1.15;0.90;;;;;;;;;;5083927;28;20063;-40
2022/11/16 09:10:11;;;;;;;0.70;0.70;;;;;;;;;;5082473;28;20037;-40
2022/11/16 09:12:37;;;;;;;1.38;0.93;;;;;;;;;;5067403;28;20040;-40
2022/11/16 09:15:04;;;;;;;0.70;0.70;;;;;;;;;;5068224;28;20506;-40
2022/11/16 09:17:30;;;;;;;0.70;0.70;;;;;;;;;;5085566;28;20035;-40
2022/11/16 09:19:56;;;;;;;0.75;0.73;;;;;;;;;;5075023;28;20028;-40
2022/11/16 09:22:22;;;;;;;1.65;1.00;;;;;;;;;;5075536;28;20032;-40
2022/11/16 09:24:48;;;;;;;0.90;0.70;;;;;;;;;;5077096;28;20705;-40
2022/11/16 09:27:15;;;;;;;1.10;0.75;;;;;;;;;;5072720;28;20437;-40
2022/11/16 09:29:41;;;;;;;0.70;0.70;;;;;;;;;;5088497;28;20036;-39
2022/11/16 09:32:08;;;;;;;0.80;0.80;;;;;;;;;;5089778;28;20123;-40
2022/11/16 09:34:35;;;;;;;0.90;0.90;;;;;;;;;;5092864;28;20031;-39
2022/11/16 09:37:01;;;;;;;2.15;1.30;;;;;;;;;;5091269;28;20480;-40
2022/11/16 09:39:30;;;;;;;1.02;0.93;;;;;;;;;;5085344;28;20103;-40
2022/11/16 09:42:03;;;;;;;1.55;1.00;;;;;;;;;;5075191;28;20035;-40
2022/11/16 09:44:38;;;;;;;1.98;1.33;;;;;;;;;;5086570;28;20495;-40
2022/11/16 09:47:04;;;;;;;2.45;1.48;;;;;;;;;;5080227;28;20028;-40
2022/11/16 09:49:32;;;;;;;1.73;1.23;;;;;;;;;;5086770;28;20083;-40
2022/11/16 09:52:00;;;;;;;1.30;1.17;;;;;;;;;;5087361;28;20124;-40
2022/11/16 09:54:29;;;;;;;1.25;1.10;;;;;;;;;;5072385;28;20104;-40
2022/11/16 09:56:57;;;;;;;1.77;1.20;;;;;;;;;;5072108;28;20031;-40
2022/11/16 09:59:25;;;;;;;1.17;1.00;;;;;;;;;;5072327;28;20770;-40
2022/11/16 10:01:51;;;;;;;1.10;0.90;;;;;;;;;;5075570;28;20024;-40
2022/11/16 10:04:35;;;;;;;1.13;0.80;;;;;;;;;;5092752;28;20040;-40
2022/11/16 10:07:01;;;;;;;;;;;;;;;;;;5092688;28;20408;-40
2022/11/16 10:09:29;;;;;;;0.90;0.88;;;;;;;;;;5092452;28;19938;-40
2022/11/16 10:11:55;;;;;;;1.20;0.88;;;;;;;;;;5088187;28;20032;-40
2022/11/16 10:14:40;;;;;;;1.92;0.80;;;;;;;;;;5068760;28;20641;-40
2022/11/16 10:17:06;;;;;;;1.83;0.77;;;;;;;;;;5075105;28;20040;-40
2022/11/16 10:19:53;;;;;;;1.65;0.50;;;;;;;;;;5072001;28;20074;-40
2022/11/16 10:22:38;;;;;;;0.70;0.50;;;;;;;;;;5072171;28;20027;-40
2022/11/16 10:25:11;;;;;;;0.50;0.40;;;;;;;;;;5071799;28;20111;-40
2022/11/16 10:27:43;;;;;;;0.43;0.40;;;;;;;;;;5071582;28;20032;-40
2022/11/16 10:30:17;;;;;;;0.45;0.30;;;;;;;;;;5071780;28;20482;-40
2022/11/16 10:32:52;;;;;;;0.50;0.50;;;;;;;;;;5071650;28;20376;-40
2022/11/16 10:35:22;;;;;;;0.63;0.50;;;;;;;;;;5073064;28;20020;-40
2022/11/16 10:37:49;;;;;;;0.50;0.50;;;;;;;;;;5071794;28;20111;-40
2022/11/16 10:40:20;;;;;;;0.47;0.40;;;;;;;;;;5071535;28;20458;-40
2022/11/16 10:42:50;;;;;;;0.93;0.57;;;;;;;;;;5085699;28;20027;-41
2022/11/16 10:45:25;;;;;;;0.40;0.40;;;;;;;;;;5091166;28;20073;-40
2022/11/16 10:48:01;;;;;;;0.40;0.40;;;;;;;;;;5081944;28;20025;-40
2022/11/16 10:50:31;;;;;;;0.75;0.50;;;;;;;;;;5071205;28;20032;-40
2022/11/16 10:52:58;;;;;;;0.60;0.55;;;;;;;;;;5075414;28;20048;-40
2022/11/16 10:55:24;;;;;;;0.93;0.70;;;;;;;;;;5090566;28;20566;-40
2022/11/16 10:58:04;;;;;;;0.50;0.50;;;;;;;;;;5072078;28;20055;-41
2022/11/16 11:00:33;;;;;;;1.08;0.50;;;;;;;;;;5071105;28;20036;-40
2022/11/16 11:02:59;;;;;;;0.50;0.50;;;;;;;;;;5071117;28;20029;-41
2022/11/16 11:05:25;;;;;;;0.40;0.40;;;;;;;;;;5070951;28;20051;-40
2022/11/16 11:08:02;;;;;;;0.52;0.50;;;;;;;;;;5079344;28;20039;-40
2022/11/16 11:10:28;;;;;;;0.88;0.65;;;;;;;;;;5087405;28;20035;-40
2022/11/16 11:13:05;;;;;;;1.33;0.57;;;;;;;;;;5074859;28;20033;-40
2022/11/16 11:15:32;;;;;;;0.50;0.50;;;;;;;;;;5077759;28;20019;-39
2022/11/16 11:18:18;;;;;;;0.40;0.40;;;;;;;;;;5089840;28;20035;-40
2022/11/16 11:20:46;;;;;;;0.30;0.30;;;;;;;;;;5081997;28;20035;-41
2022/11/16 11:23:20;;;;;;;0.30;0.30;;;;;;;;;;5071250;28;20039;-40
2022/11/16 11:25:52;;;;;;;0.28;0.22;;;;;;;;;;5090444;28;20020;-40
2022/11/16 11:28:22;;;;;;;0.68;0.30;;;;;;;;;;5090387;28;20069;-41
2022/11/16 11:31:09;;;;;;;0.30;0.30;;;;;;;;;;5072266;28;20108;-41
2022/11/16 11:33:37;;;;;;;0.80;0.38;;;;;;;;;;5070713;28;20040;-41
2022/11/16 11:36:03;;;;;;;0.77;0.30;;;;;;;;;;5079881;28;20024;-40
2022/11/16 11:38:29;;;;;;;0.30;0.30;;;;;;;;;;5090401;28;20610;-40
2022/11/16 11:40:57;;;;;;;0.20;0.20;;;;;;;;;;5088544;28;20036;-40
2022/11/16 11:43:24;;;;;;;1.08;0.38;;;;;;;;;;5076465;28;20036;-40
2022/11/16 11:46:05;;;;;;;0.28;0.28;;;;;;;;;;5078784;28;20036;-40
2022/11/16 11:48:50;;;;;;;0.60;0.45;;;;;;;;;;5070533;28;20040;-40
2022/11/16 11:51:16;;;;;;;;;;;;;;;;;;5080247;28;20376;-41
2022/11/16 11:54:02;;;;;;;0.47;0.40;;;;;;;;;;5090378;28;19904;-40
2022/11/16 11:56:30;;;;;;;0.30;0.30;;;;;;;;;;5089133;28;20028;-40
2022/11/16 11:58:57;;;;;;;0.65;0.60;;;;;;;;;;5090052;28;20423;-40
2022/11/16 12:01:32;;;;;;;0.73;0.35;;;;;;;;;;5088898;28;20491;-40
2022/11/16 12:03:58;;;;;;;0.98;0.40;;;;;;;;;;5082029;28;20107;-40
2022/11/16 12:06:36;;;;;;;0.40;0.30;;;;;;;;;;5073890;28;20040;-41
2022/11/16 12:09:07;;;;;;;1.20;0.43;;;;;;;;;;5087641;28;20406;-42
2022/11/16 12:11:33;;;;;;;1.17;0.50;;;;;;;;;;5080952;28;20024;-42
2022/11/16 12:14:24;;;;;;;0.30;0.30;;;;;;;;;;5079963;28;20380;-41
2022/11/16 12:16:59;;;;;;;1.15;0.40;;;;;;;;;;5082096;28;20119;-41
2022/11/16 12:19:43;;;;;;;0.43;0.32;;;;;;;;;;5076303;28;20070;-41
2022/11/16 12:22:36;;;;;;;0.55;0.40;;;;;;;;;;5076481;28;20517;-41
2022/11/16 12:25:14;;;;;;;0.47;0.40;;;;;;;;;;5077271;28;20038;-41
2022/11/16 12:27:50;;;;;;;0.70;0.35;;;;;;;;;;5071426;28;20047;-41
2022/11/16 12:30:19;;;;;;;1.27;0.50;;;;;;;;;;5052983;28;20016;-41
2022/11/16 12:32:51;;;;;;;0.35;0.30;;;;;;;;;;5075305;28;20418;-41
2022/11/16 12:35:37;;;;;;;0.30;0.30;;;;;;;;;;5079209;28;20024;-41
2022/11/16 12:38:24;;;;;;;0.63;0.40;;;;;;;;;;5074323;28;20496;-41
2022/11/16 12:41:08;;;;;;;0.60;0.30;;;;;;;;;;5077523;28;20036;-41
2022/11/16 12:43:34;;;;;;;;;;;;;;;;;;5070021;28;20119;-41
2022/11/16 12:46:16;;;;;;;0.65;0.45;;;;;;;;;;5070848;28;20042;-41
2022/11/16 12:48:48;;;;;;;0.98;0.50;;;;;;;;;;5082989;28;20446;-41
2022/11/16 12:51:20;;;;;;;0.88;0.30;;;;;;;;;;5057862;28;20319;-41
2022/11/16 12:54:04;;;;;;;1.05;0.47;;;;;;;;;;5052807;28;20021;-41
2022/11/16 12:56:30;;;;;;;;;;;;;;;;;;5075406;28;20025;-41
2022/11/16 12:58:56;;;;;;;1.33;0.60;;;;;;;;;;5066072;28;19909;-41
2022/11/16 13:01:35;;;;;;;0.50;0.50;;;;;;;;;;5074098;28;20483;-41
2022/11/16 13:04:07;;;;;;;0.30;0.30;;;;;;;;;;5077417;28;20513;-41
2022/11/16 13:06:36;;;;;;;0.30;0.30;;;;;;;;;;5079566;28;20038;-41
2022/11/16 13:09:06;;;;;;;0.30;0.30;;;;;;;;;;5073091;28;20039;-41
2022/11/16 13:11:37;;;;;;;0.63;0.30;;;;;;;;;;5077175;28;20024;-41
2022/11/16 13:14:06;;;;;;;0.75;0.30;;;;;;;;;;5083759;28;20518;-41
2022/11/16 13:16:33;;;;;;;0.20;0.20;;;;;;;;;;5088130;28;20028;-41
2022/11/16 13:19:00;;;;;;;0.20;0.20;;;;;;;;;;5091240;28;20032;-42
2022/11/16 13:21:31;;;;;;;0.50;0.38;;;;;;;;;;5090784;28;20023;-41
2022/11/16 13:24:16;;;;;;;0.32;0.32;;;;;;;;;;5087429;28;20271;-42
2022/11/16 13:26:54;;;;;;;1.13;0.28;;;;;;;;;;5089620;28;20024;-41
2022/11/16 13:29:29;;;;;;;0.50;0.40;;;;;;;;;;5089909;28;20031;-42
2022/11/16 13:32:07;;;;;;;0.63;0.32;;;;;;;;;;5071522;28;20035;-41
2022/11/16 13:34:34;;;;;;;0.55;0.38;;;;;;;;;;5088391;28;20020;-41
2022/11/16 13:37:00;;;;;;;0.50;0.20;;;;;;;;;;5089146;28;20069;-41
2022/11/16 13:39:52;;;;;;;0.55;0.30;;;;;;;;;;5089048;28;20032;-41
2022/11/16 13:42:18;;;;;;;0.38;0.30;;;;;;;;;;5036348;28;20063;-42
2022/11/16 13:44:44;;;;;;;0.93;0.40;;;;;;;;;;5050983;28;20650;-41
2022/11/16 13:47:22;;;;;;;1.38;0.30;;;;;;;;;;5068959;28;20562;-41
2022/11/16 13:49:52;;;;;;;0.52;0.30;;;;;;;;;;5068909;28;20021;-41
2022/11/16 13:52:18;;;;;;;0.30;0.30;;;;;;;;;;5087015;28;20028;-42
2022/11/16 13:54:49;;;;;;;0.43;0.40;;;;;;;;;;5088862;28;20027;-42
2022/11/16 13:57:30;;;;;;;0.70;0.30;;;;;;;;;;5089006;28;20103;-42
2022/11/16 13:59:56;;;;;;;0.30;0.30;;;;;;;;;;5089079;28;20082;-42
2022/11/16 14:02:34;;;;;;;0.40;0.40;;;;;;;;;;5067374;28;20074;-43
2022/11/16 14:05:02;;;;;;;0.35;0.35;;;;;;;;;;5067144;28;20032;-42
2022/11/16 14:07:41;;;;;;;0.40;0.30;;;;;;;;;;5070659;28;20138;-42
2022/11/16 14:10:08;;;;;;;1.55;0.60;;;;;;;;;;5067729;28;20380;-42
2022/11/16 14:12:37;;;;;;;0.80;0.30;;;;;;;;;;5077756;28;20090;-42
2022/11/16 14:15:14;;;;;;;0.40;0.40;;;;;;;;;;5069290;28;20028;-42
2022/11/16 14:17:50;;;;;;;0.50;0.40;;;;;;;;;;5068632;28;20021;-42
2022/11/16 14:20:26;;;;;;;0.98;0.55;;;;;;;;;;5067992;28;20037;-42
2022/11/16 14:22:57;;;;;;;0.43;0.43;;;;;;;;;;5074835;28;20036;-42
2022/11/16 14:25:23;;;;;;;0.45;0.40;;;;;;;;;;5080402;28;20024;-42
2022/11/16 14:28:04;;;;;;;0.50;0.50;;;;;;;;;;5068529;28;20035;-42
2022/11/16 14:30:35;;;;;;;0.45;0.38;;;;;;;;;;5068857;28;20028;-42
2022/11/16 14:33:01;;;;;;;0.50;0.30;;;;;;;;;;5068540;28;20372;-42
2022/11/16 14:35:37;;;;;;;0.38;0.30;;;;;;;;;;5073593;28;20027;-42
2022/11/16 14:38:26;;;;;;;0.30;0.30;;;;;;;;;;5088724;28;20032;-42
2022/11/16 14:40:54;;;;;;;0.63;0.50;;;;;;;;;;5088243;28;20052;-42
2022/11/16 14:43:26;;;;;;;0.43;0.43;;;;;;;;;;5088686;28;20024;-42
2022/11/16 14:45:56;;;;;;;0.30;0.30;;;;;;;;;;5081198;28;20031;-42
2022/11/16 14:48:24;;;;;;;0.20;0.20;;;;;;;;;;5068522;28;20025;-42
2022/11/16 14:51:20;;;;;;;0.28;0.28;;;;;;;;;;5068014;28;20055;-42
2022/11/16 14:53:49;;;;;;;0.28;0.28;;;;;;;;;;5049851;28;20071;-43
2022/11/16 14:56:17;;;;;;;0.50;0.30;;;;;;;;;;5068763;28;20066;-42
2022/11/16 14:58:52;;;;;;;1.05;0.40;;;;;;;;;;5068264;28;20031;-42
2022/11/16 15:01:20;;;;;;;0.30;0.30;;;;;;;;;;5068169;28;20029;-42
2022/11/16 15:04:01;;;;;;;0.30;0.30;;;;;;;;;;5067828;28;20024;-42
2022/11/16 15:06:27;;;;;;;0.35;0.30;;;;;;;;;;5067864;28;20037;-42
2022/11/16 15:09:01;;;;;;;0.30;0.30;;;;;;;;;;5067502;28;20063;-42
2022/11/16 15:14:24;;;;;;;0.50;0.40;;;;;;;;;;5067679;28;20038;-42
2022/11/16 15:16:59;;;;;;;0.30;0.30;;;;;;;;;;5073552;28;20028;-42
2022/11/16 15:19:29;;;;;;;0.30;0.30;;;;;;;;;;5087944;28;20099;-42
2022/11/16 15:22:04;;;;;;;0.70;0.30;;;;;;;;;;5087184;28;20036;-42
2022/11/16 15:24:34;;;;;;;0.43;0.40;;;;;;;;;;5086446;28;20024;-42
2022/11/16 15:27:06;;;;;;;0.55;0.40;;;;;;;;;;5087581;28;20118;-41
2022/11/16 15:29:32;;;;;;;0.77;0.40;;;;;;;;;;5088415;28;20027;-42
2022/11/16 15:31:58;;;;;;;0.38;0.30;;;;;;;;;;5087374;28;20028;-42
2022/11/16 15:34:25;;;;;;;1.20;0.75;;;;;;;;;;5086479;28;20055;-42
2022/11/16 15:36:51;;;;;;;0.95;0.50;;;;;;;;;;5087169;28;20035;-42
2022/11/16 15:39:19;;;;;;;1.02;0.60;;;;;;;;;;5087621;28;20020;-42
2022/11/16 15:41:45;;;;;;;1.85;0.80;;;;;;;;;;5087270;28;20040;-42
2022/11/16 15:44:14;;;;;;;0.63;0.50;;;;;;;;;;5085263;28;20353;-42
2022/11/16 15:46:40;;;;;;;0.93;0.60;;;;;;;;;;5087396;28;20563;-42
2022/11/16 15:49:23;;;;;;;0.75;0.50;;;;;;;;;;5087567;28;20028;-42
2022/11/16 15:51:49;;;;;;;1.35;0.70;;;;;;;;;;5086729;28;20028;-42
2022/11/16 15:54:22;;;;;;;1.67;0.70;;;;;;;;;;5074017;28;20037;-42
2022/11/16 15:56:48;;;;;;;0.75;0.63;;;;;;;;;;5066726;28;20033;-42
2022/11/16 15:59:22;;;;;;;1.08;0.70;;;;;;;;;;5077989;28;20380;-42
2022/11/16 16:01:48;;;;;;;1.42;0.80;;;;;;;;;;5086673;28;20686;-42
2022/11/16 16:04:15;;;;;;;1.50;0.90;;;;;;;;;;5084863;28;20024;-42
2022/11/16 16:06:45;;;;;;;1.98;1.10;;;;;;;;;;5086788;28;20718;-41
2022/11/16 16:09:17;;;;;;;2.38;1.40;;;;;;;;;;5087390;28;20406;-42
2022/11/16 16:11:43;;;;;;;2.20;1.27;;;;;;;;;;5087119;28;20024;-41
2022/11/16 16:14:09;;;;;;;1.27;1.00;;;;;;;;;;5077691;28;20052;-41
2022/11/16 16:16:39;;;;;;;1.20;0.82;;;;;;;;;;5076529;28;20068;-41
2022/11/16 16:19:24;;;;;;;1.30;0.90;;;;;;;;;;5068729;28;20028;-41
2022/11/16 16:21:50;;;;;;;1.77;0.88;;;;;;;;;;5076148;28;20035;-41
2022/11/16 16:24:34;;;;;;;2.00;1.05;;;;;;;;;;5085333;28;20664;-41
2022/11/16 16:27:01;;;;;;;1.95;1.00;;;;;;;;;;5087181;28;20082;-41
2022/11/16 16:29:27;;;;;;;1.80;1.10;;;;;;;;;;5087098;28;20028;-41
2022/11/16 16:31:54;;;;;;;1.92;1.17;;;;;;;;;;5087203;28;20107;-41
2022/11/16 16:34:20;;;;;;;1.10;1.00;;;;;;;;;;5074587;28;20052;-41
2022/11/16 16:36:46;;;;;;;1.40;0.80;;;;;;;;;;5067101;28;20074;-41
2022/11/16 16:39:12;;;;;;;1.60;0.95;;;;;;;;;;5066793;28;20025;-41
2022/11/16 16:41:39;;;;;;;1.05;0.80;;;;;;;;;;5070468;28;20079;-41
2022/11/16 16:44:10;;;;;;;1.15;0.90;;;;;;;;;;5080600;28;20035;-41
2022/11/16 16:46:36;;;;;;;0.88;0.63;;;;;;;;;;5086988;28;20024;-41
2022/11/16 16:49:02;;;;;;;1.13;0.65;;;;;;;;;;5086917;28;20457;-41
2022/11/16 16:51:28;;;;;;;2.08;1.00;;;;;;;;;;5085604;28;20028;-41
2022/11/16 16:53:54;;;;;;;1.00;0.75;;;;;;;;;;5085114;28;20078;-41
2022/11/16 16:56:21;;;;;;;0.47;0.47;;;;;;;;;;5086964;28;20020;-41
2022/11/16 16:58:47;;;;;;;1.13;0.60;;;;;;;;;;5087507;28;20031;-41
2022/11/16 17:01:13;;;;;;;0.77;0.77;;;;;;;;;;5085182;28;20070;-41
2022/11/16 17:03:39;;;;;;;1.38;0.60;;;;;;;;;;5086826;28;20070;-41
2022/11/16 17:06:05;;;;;;;1.40;0.80;;;;;;;;;;5086763;28;20055;-41
2022/11/16 17:08:35;;;;;;;1.27;0.70;;;;;;;;;;5086856;28;20032;-41
2022/11/16 17:11:01;;;;;;;0.63;0.60;;;;;;;;;;5070764;28;20041;-41
2022/11/16 17:13:27;;;;;;;0.88;0.80;;;;;;;;;;5084627;28;20020;-41
2022/11/16 17:15:53;;;;;;;1.00;0.60;;;;;;;;;;5086866;28;20067;-41
2022/11/16 17:18:20;;;;;;;0.73;0.50;;;;;;;;;;5087086;28;20016;-41
2022/11/16 17:20:46;;;;;;;0.65;0.52;;;;;;;;;;5074476;28;20048;-41
2022/11/16 17:23:14;;;;;;;1.27;0.57;;;;;;;;;;5073233;28;20028;-41
2022/11/16 17:25:40;;;;;;;0.40;0.40;;;;;;;;;;5081593;28;20794;-41
2022/11/16 17:28:06;;;;;;;0.45;0.45;;;;;;;;;;5073120;28;20063;-41
2022/11/16 17:30:32;;;;;;;0.77;0.57;;;;;;;;;;5086753;28;20428;-41
2022/11/16 17:32:58;;;;;;;1.02;0.80;;;;;;;;;;5073675;28;20533;-41
2022/11/16 17:35:24;;;;;;;0.88;0.60;;;;;;;;;;5086027;28;20376;-41
2022/11/16 17:37:51;;;;;;;0.93;0.80;;;;;;;;;;5066585;28;20033;-41
2022/11/16 17:40:17;;;;;;;0.85;0.70;;;;;;;;;;5076583;28;20506;-41
2022/11/16 17:42:44;;;;;;;0.93;0.75;;;;;;;;;;5086533;28;20155;-41
2022/11/16 17:45:10;;;;;;;1.20;1.00;;;;;;;;;;5086781;28;20529;-41
2022/11/16 17:47:37;;;;;;;3.72;2.30;;;;;;;;;;5086345;28;20035;-41
2022/11/16 17:50:04;;;;;;;4.95;3.55;;;;;;;;;;5080428;28;20051;-41
2022/11/16 17:52:30;;;;;;;4.85;3.03;;;;;;;;;;5081391;28;20021;-41
2022/11/16 17:54:57;;;;;;;5.90;3.70;;;;;;;;;;5076377;28;20102;-41
2022/11/16 17:57:23;;;;;;;6.00;4.53;;;;;;;;;;5082052;28;20804;-41
2022/11/16 17:59:49;;;;;;;4.70;3.50;;;;;;;;;;5080164;28;20577;-41
2022/11/16 18:02:15;;;;;;;4.22;3.00;;;;;;;;;;5074472;28;20122;-41
2022/11/16 18:04:41;;;;;;;3.75;2.90;;;;;;;;;;5087836;28;20032;-42
2022/11/16 18:07:08;;;;;;;2.95;2.20;;;;;;;;;;5081659;28;20090;-41
2022/11/16 18:09:34;;;;;;;2.25;1.80;;;;;;;;;;5067969;28;20090;-41
2022/11/16 18:12:00;;;;;;;2.42;1.60;;;;;;;;;;5070050;28;20149;-41
2022/11/16 18:14:27;;;;;;;2.13;1.55;;;;;;;;;;5070557;28;20029;-41
2022/11/16 18:16:53;;;;;;;1.90;1.65;;;;;;;;;;5070677;28;20032;-41
2022/11/16 18:19:19;;;;;;;1.85;1.33;;;;;;;;;;5084124;28;20025;-41
2022/11/16 18:21:45;;;;;;;1.85;1.40;;;;;;;;;;5069320;28;20055;-41
2022/11/16 18:24:12;;;;;;;1.95;1.02;;;;;;;;;;5079848;28;20115;-41
2022/11/16 18:26:39;;;;;;;1.10;0.98;;;;;;;;;;5089335;28;20024;-41
2022/11/16 18:29:05;;;;;;;1.05;0.88;;;;;;;;;;5084873;28;20032;-43
2022/11/16 18:31:32;;;;;;;0.75;0.75;;;;;;;;;;5072172;28;20075;-41
2022/11/16 18:34:00;;;;;;;1.90;1.20;;;;;;;;;;5068260;28;20426;-41
2022/11/16 18:36:26;;;;;;;1.95;1.20;;;;;;;;;;5049530;28;20036;-41
2022/11/16 18:38:52;;;;;;;2.75;1.08;;;;;;;;;;5069421;28;20036;-41
2022/11/16 18:41:19;;;;;;;2.17;1.20;;;;;;;;;;5073523;28;20484;-42
2022/11/16 18:43:52;;;;;;;2.08;1.20;;;;;;;;;;5067457;28;20020;-41
2022/11/16 18:46:19;;;;;;;1.77;0.88;;;;;;;;;;5067584;28;20599;-41
2022/11/16 18:48:45;;;;;;;1.02;0.85;;;;;;;;;;5055974;28;20024;-41
2022/11/16 18:51:13;;;;;;;2.08;1.10;;;;;;;;;;5075167;28;20028;-41
2022/11/16 18:53:40;;;;;;;1.23;0.80;;;;;;;;;;5071814;28;20016;-42
2022/11/16 18:56:07;;;;;;;2.33;1.02;;;;;;;;;;5076228;28;20036;-41
2022/11/16 18:58:34;;;;;;;3.25;1.42;;;;;;;;;;5076952;28;20028;-41
2022/11/16 19:01:04;;;;;;;2.28;1.30;;;;;;;;;;5072687;28;20059;-41
2022/11/16 19:03:30;;;;;;;1.40;0.82;;;;;;;;;;5058682;28;20179;-41
2022/11/16 19:06:00;;;;;;;1.85;1.10;;;;;;;;;;5078686;28;20717;-41
2022/11/16 19:08:27;;;;;;;0.93;0.70;;;;;;;;;;5063176;28;20031;-41
2022/11/16 19:10:53;;;;;;;2.03;1.00;;;;;;;;;;5076006;28;20158;-41
2022/11/16 19:13:19;;;;;;;1.20;0.77;;;;;;;;;;5076189;28;20020;-42
2022/11/16 19:15:45;;;;;;;1.42;0.90;;;;;;;;;;5075830;28;20452;-41
2022/11/16 19:18:12;;;;;;;2.42;1.05;;;;;;;;;;5080365;28;20403;-41
2022/11/16 19:20:38;;;;;;;1.98;0.70;;;;;;;;;;5073718;28;20032;-41
2022/11/16 19:23:04;;;;;;;1.15;0.75;;;;;;;;;;5081651;28;20021;-41
2022/11/16 19:25:30;;;;;;;1.20;0.70;;;;;;;;;;5081713;28;20115;-41
2022/11/16 19:27:56;;;;;;;1.13;0.75;;;;;;;;;;5056314;28;20028;-41
2022/11/16 19:30:22;;;;;;;1.83;0.57;;;;;;;;;;5083964;28;20039;-41
2022/11/16 19:32:48;;;;;;;0.70;0.70;;;;;;;;;;5087933;28;20027;-41
2022/11/16 19:35:15;;;;;;;0.73;0.70;;;;;;;;;;5069390;28;20035;-41
2022/11/16 19:37:42;;;;;;;1.27;0.80;;;;;;;;;;5074036;28;20020;-42
2022/11/16 19:40:08;;;;;;;1.05;0.90;;;;;;;;;;5078506;28;20034;-41
2022/11/16 19:42:34;;;;;;;1.20;0.90;;;;;;;;;;5084801;28;20028;-41
2022/11/16 19:45:01;;;;;;;1.52;1.05;;;;;;;;;;5075284;28;20032;-41
2022/11/16 19:47:28;;;;;;;1.67;0.85;;;;;;;;;;5067381;28;20025;-41
2022/11/16 19:49:54;;;;;;;1.10;0.85;;;;;;;;;;5070424;28;20119;-41
2022/11/16 19:52:20;;;;;;;1.52;1.00;;;;;;;;;;5076501;28;20158;-41
2022/11/16 19:54:46;;;;;;;1.00;0.90;;;;;;;;;;5073595;28;20444;-41
2022/11/16 19:57:14;;;;;;;1.00;0.77;;;;;;;;;;5076908;28;20035;-41
2022/11/16 19:59:40;;;;;;;1.00;0.85;;;;;;;;;;5078185;28;20113;-41
2022/11/16 20:02:06;;;;;;;1.35;0.95;;;;;;;;;;5064784;28;20056;-41
2022/11/16 20:04:33;;;;;;;1.88;1.30;;;;;;;;;;5085340;28;20040;-41
2022/11/16 20:06:59;;;;;;;1.88;1.23;;;;;;;;;;5079998;28;20031;-42